sensor_id;sensor_type;location;lat;lon;timestamp;P1;durP1;ratioP1;P2;durP2;ratioP2
31594;SDS011;18200;48.726;8.892;2023-05-06T00:03:38;4.15;;;2.60;;
31594;SDS011;18200;48.726;8.892;2023-05-06T00:07:38;6.28;;;2.90;;
31594;SDS011;18200;48.726;8.892;2023-05-06T00:11:39;2.50;;;2.30;;
31594;SDS011;18200;48.726;8.892;2023-05-06T00:15:39;3.55;;;2.20;;
31594;SDS011;18200;48.726;8.892;2023-05-06T00:19:40;3.35;;;2.58;;
31594;SDS011;18200;48.726;8.892;2023-05-06T00:23:40;6.88;;;2.30;;
31594;SDS011;18200;48.726;8.892;2023-05-06T00:27:40;4.53;;;1.98;;
31594;SDS011;18200;48.726;8.892;2023-05-06T00:31:41;2.35;;;2.10;;
31594;SDS011;18200;48.726;8.892;2023-05-06T00:35:41;2.97;;;2.15;;
31594;SDS011;18200;48.726;8.892;2023-05-06T00:39:41;4.68;;;2.65;;
31594;SDS011;18200;48.726;8.892;2023-05-06T00:43:42;3.38;;;1.98;;
31594;SDS011;18200;48.726;8.892;2023-05-06T00:47:42;8.73;;;2.40;;
31594;SDS011;18200;48.726;8.892;2023-05-06T00:51:43;3.45;;;2.30;;
31594;SDS011;18200;48.726;8.892;2023-05-06T00:55:44;4.88;;;2.20;;
31594;SDS011;18200;48.726;8.892;2023-05-06T00:59:45;6.43;;;2.80;;
31594;SDS011;18200;48.726;8.892;2023-05-06T01:03:45;3.78;;;2.40;;
31594;SDS011;18200;48.726;8.892;2023-05-06T01:12:43;4.38;;;2.53;;
31594;SDS011;18200;48.726;8.892;2023-05-06T01:16:50;3.78;;;2.50;;
31594;SDS011;18200;48.726;8.892;2023-05-06T01:20:54;2.70;;;2.05;;
31594;SDS011;18200;48.726;8.892;2023-05-06T01:24:55;3.85;;;2.42;;
31594;SDS011;18200;48.726;8.892;2023-05-06T01:28:56;8.30;;;2.53;;
31594;SDS011;18200;48.726;8.892;2023-05-06T01:33:08;3.22;;;2.00;;
31594;SDS011;18200;48.726;8.892;2023-05-06T01:37:13;3.78;;;2.30;;
31594;SDS011;18200;48.726;8.892;2023-05-06T01:41:18;4.22;;;2.03;;
31594;SDS011;18200;48.726;8.892;2023-05-06T01:45:20;3.13;;;2.10;;
31594;SDS011;18200;48.726;8.892;2023-05-06T01:49:26;3.28;;;2.50;;
31594;SDS011;18200;48.726;8.892;2023-05-06T01:53:28;3.78;;;2.50;;
31594;SDS011;18200;48.726;8.892;2023-05-06T01:57:28;4.93;;;1.80;;
31594;SDS011;18200;48.726;8.892;2023-05-06T02:01:28;6.13;;;2.45;;
31594;SDS011;18200;48.726;8.892;2023-05-06T02:05:29;3.58;;;2.20;;
31594;SDS011;18200;48.726;8.892;2023-05-06T02:09:31;3.85;;;2.50;;
31594;SDS011;18200;48.726;8.892;2023-05-06T02:13:34;3.22;;;2.10;;
31594;SDS011;18200;48.726;8.892;2023-05-06T02:17:36;5.53;;;2.53;;
31594;SDS011;18200;48.726;8.892;2023-05-06T02:21:37;3.28;;;2.33;;
31594;SDS011;18200;48.726;8.892;2023-05-06T02:25:38;4.55;;;2.50;;
31594;SDS011;18200;48.726;8.892;2023-05-06T02:29:38;5.07;;;2.50;;
31594;SDS011;18200;48.726;8.892;2023-05-06T02:33:39;5.20;;;2.72;;
31594;SDS011;18200;48.726;8.892;2023-05-06T02:37:39;3.72;;;2.47;;
31594;SDS011;18200;48.726;8.892;2023-05-06T02:41:39;4.90;;;2.70;;
31594;SDS011;18200;48.726;8.892;2023-05-06T02:45:40;4.10;;;2.28;;
31594;SDS011;18200;48.726;8.892;2023-05-06T02:49:40;8.38;;;3.00;;
31594;SDS011;18200;48.726;8.892;2023-05-06T02:53:40;5.95;;;2.50;;
31594;SDS011;18200;48.726;8.892;2023-05-06T02:57:41;6.68;;;2.40;;
31594;SDS011;18200;48.726;8.892;2023-05-06T03:01:41;5.30;;;3.00;;
31594;SDS011;18200;48.726;8.892;2023-05-06T03:05:41;4.00;;;2.40;;
31594;SDS011;18200;48.726;8.892;2023-05-06T03:09:42;6.05;;;5.45;;
31594;SDS011;18200;48.726;8.892;2023-05-06T03:13:43;4.20;;;3.03;;
31594;SDS011;18200;48.726;8.892;2023-05-06T03:17:45;4.43;;;3.90;;
31594;SDS011;18200;48.726;8.892;2023-05-06T03:21:46;7.55;;;2.78;;
31594;SDS011;18200;48.726;8.892;2023-05-06T03:25:46;3.67;;;2.58;;
31594;SDS011;18200;48.726;8.892;2023-05-06T03:29:47;5.55;;;3.30;;
31594;SDS011;18200;48.726;8.892;2023-05-06T03:33:49;7.15;;;3.80;;
31594;SDS011;18200;48.726;8.892;2023-05-06T03:37:50;8.30;;;2.97;;
31594;SDS011;18200;48.726;8.892;2023-05-06T03:41:52;6.20;;;3.00;;
31594;SDS011;18200;48.726;8.892;2023-05-06T03:45:53;4.60;;;2.60;;
31594;SDS011;18200;48.726;8.892;2023-05-06T03:49:54;3.60;;;2.75;;
31594;SDS011;18200;48.726;8.892;2023-05-06T03:53:54;3.05;;;2.25;;
31594;SDS011;18200;48.726;8.892;2023-05-06T03:57:56;6.78;;;3.42;;
31594;SDS011;18200;48.726;8.892;2023-05-06T04:01:56;4.00;;;2.53;;
31594;SDS011;18200;48.726;8.892;2023-05-06T04:05:57;5.40;;;3.05;;
31594;SDS011;18200;48.726;8.892;2023-05-06T04:09:59;4.15;;;3.30;;
31594;SDS011;18200;48.726;8.892;2023-05-06T04:14:00;4.03;;;3.10;;
31594;SDS011;18200;48.726;8.892;2023-05-06T04:18:01;5.47;;;3.67;;
31594;SDS011;18200;48.726;8.892;2023-05-06T04:22:01;6.75;;;3.45;;
31594;SDS011;18200;48.726;8.892;2023-05-06T04:26:02;6.78;;;3.40;;
31594;SDS011;18200;48.726;8.892;2023-05-06T04:30:05;3.50;;;2.88;;
31594;SDS011;18200;48.726;8.892;2023-05-06T04:34:06;3.30;;;2.50;;
31594;SDS011;18200;48.726;8.892;2023-05-06T04:38:10;5.88;;;3.05;;
31594;SDS011;18200;48.726;8.892;2023-05-06T04:42:14;4.38;;;2.90;;
31594;SDS011;18200;48.726;8.892;2023-05-06T04:46:23;4.20;;;3.20;;
31594;SDS011;18200;48.726;8.892;2023-05-06T04:50:24;5.25;;;4.22;;
31594;SDS011;18200;48.726;8.892;2023-05-06T04:54:26;6.32;;;4.20;;
31594;SDS011;18200;48.726;8.892;2023-05-06T04:58:26;4.68;;;3.30;;
31594;SDS011;18200;48.726;8.892;2023-05-06T05:02:28;5.25;;;3.25;;
31594;SDS011;18200;48.726;8.892;2023-05-06T05:06:29;5.05;;;3.88;;
31594;SDS011;18200;48.726;8.892;2023-05-06T05:10:32;4.20;;;3.80;;
31594;SDS011;18200;48.726;8.892;2023-05-06T05:14:33;10.57;;;3.38;;
31594;SDS011;18200;48.726;8.892;2023-05-06T05:18:33;5.60;;;3.33;;
31594;SDS011;18200;48.726;8.892;2023-05-06T05:22:40;6.45;;;3.67;;
31594;SDS011;18200;48.726;8.892;2023-05-06T05:26:41;5.22;;;3.38;;
31594;SDS011;18200;48.726;8.892;2023-05-06T05:30:42;4.40;;;4.00;;
31594;SDS011;18200;48.726;8.892;2023-05-06T05:34:43;5.25;;;3.83;;
31594;SDS011;18200;48.726;8.892;2023-05-06T05:38:43;5.00;;;3.80;;
31594;SDS011;18200;48.726;8.892;2023-05-06T05:42:44;4.68;;;4.18;;
31594;SDS011;18200;48.726;8.892;2023-05-06T05:46:54;9.35;;;4.45;;
31594;SDS011;18200;48.726;8.892;2023-05-06T05:50:55;16.77;;;9.52;;
31594;SDS011;18200;48.726;8.892;2023-05-06T05:54:56;13.27;;;8.80;;
31594;SDS011;18200;48.726;8.892;2023-05-06T05:58:57;10.15;;;6.85;;
31594;SDS011;18200;48.726;8.892;2023-05-06T06:02:59;10.95;;;5.65;;
31594;SDS011;18200;48.726;8.892;2023-05-06T06:06:59;9.60;;;4.65;;
31594;SDS011;18200;48.726;8.892;2023-05-06T06:11:07;6.50;;;4.22;;
31594;SDS011;18200;48.726;8.892;2023-05-06T06:15:12;7.75;;;4.20;;
31594;SDS011;18200;48.726;8.892;2023-05-06T06:19:14;4.35;;;3.63;;
31594;SDS011;18200;48.726;8.892;2023-05-06T06:23:16;3.85;;;3.20;;
31594;SDS011;18200;48.726;8.892;2023-05-06T06:27:16;7.03;;;3.35;;
31594;SDS011;18200;48.726;8.892;2023-05-06T06:31:17;4.05;;;2.88;;
31594;SDS011;18200;48.726;8.892;2023-05-06T06:35:17;3.80;;;2.80;;
31594;SDS011;18200;48.726;8.892;2023-05-06T06:39:19;6.15;;;2.92;;
31594;SDS011;18200;48.726;8.892;2023-05-06T06:43:19;2.80;;;2.55;;
31594;SDS011;18200;48.726;8.892;2023-05-06T06:47:22;5.72;;;2.67;;
31594;SDS011;18200;48.726;8.892;2023-05-06T06:51:23;2.58;;;2.30;;
31594;SDS011;18200;48.726;8.892;2023-05-06T06:55:23;4.72;;;2.72;;
31594;SDS011;18200;48.726;8.892;2023-05-06T06:59:23;4.28;;;2.40;;
31594;SDS011;18200;48.726;8.892;2023-05-06T07:03:24;6.07;;;2.40;;
31594;SDS011;18200;48.726;8.892;2023-05-06T07:07:24;5.05;;;2.88;;
31594;SDS011;18200;48.726;8.892;2023-05-06T07:11:25;6.18;;;2.45;;
31594;SDS011;18200;48.726;8.892;2023-05-06T07:15:25;4.70;;;2.65;;
31594;SDS011;18200;48.726;8.892;2023-05-06T07:19:26;3.55;;;2.65;;
31594;SDS011;18200;48.726;8.892;2023-05-06T07:23:26;3.22;;;2.30;;
31594;SDS011;18200;48.726;8.892;2023-05-06T07:27:27;4.75;;;2.70;;
31594;SDS011;18200;48.726;8.892;2023-05-06T07:31:32;4.22;;;2.35;;
31594;SDS011;18200;48.726;8.892;2023-05-06T07:35:33;4.97;;;2.53;;
31594;SDS011;18200;48.726;8.892;2023-05-06T07:39:33;6.80;;;2.97;;
31594;SDS011;18200;48.726;8.892;2023-05-06T07:43:34;6.03;;;2.35;;
31594;SDS011;18200;48.726;8.892;2023-05-06T07:47:34;4.63;;;2.08;;
31594;SDS011;18200;48.726;8.892;2023-05-06T07:51:35;2.45;;;1.60;;
31594;SDS011;18200;48.726;8.892;2023-05-06T07:55:35;5.25;;;2.25;;
31594;SDS011;18200;48.726;8.892;2023-05-06T07:59:36;2.70;;;1.70;;
31594;SDS011;18200;48.726;8.892;2023-05-06T08:03:37;4.18;;;2.50;;
31594;SDS011;18200;48.726;8.892;2023-05-06T08:07:38;3.67;;;1.88;;
31594;SDS011;18200;48.726;8.892;2023-05-06T08:11:40;5.25;;;2.08;;
31594;SDS011;18200;48.726;8.892;2023-05-06T08:15:40;5.22;;;1.80;;
31594;SDS011;18200;48.726;8.892;2023-05-06T08:19:40;2.97;;;1.60;;
31594;SDS011;18200;48.726;8.892;2023-05-06T08:23:41;3.13;;;1.60;;
31594;SDS011;18200;48.726;8.892;2023-05-06T08:27:41;2.97;;;1.65;;
31594;SDS011;18200;48.726;8.892;2023-05-06T08:31:42;2.08;;;1.52;;
31594;SDS011;18200;48.726;8.892;2023-05-06T08:35:42;4.82;;;1.40;;
31594;SDS011;18200;48.726;8.892;2023-05-06T08:39:43;3.30;;;1.27;;
31594;SDS011;18200;48.726;8.892;2023-05-06T08:43:45;2.20;;;1.20;;
31594;SDS011;18200;48.726;8.892;2023-05-06T08:47:46;4.00;;;1.55;;
31594;SDS011;18200;48.726;8.892;2023-05-06T08:51:47;2.60;;;1.40;;
31594;SDS011;18200;48.726;8.892;2023-05-06T08:55:50;2.47;;;1.02;;
31594;SDS011;18200;48.726;8.892;2023-05-06T08:59:53;4.32;;;1.27;;
31594;SDS011;18200;48.726;8.892;2023-05-06T09:03:54;1.92;;;1.10;;
31594;SDS011;18200;48.726;8.892;2023-05-06T09:07:55;2.78;;;1.30;;
31594;SDS011;18200;48.726;8.892;2023-05-06T09:11:56;3.90;;;1.40;;
31594;SDS011;18200;48.726;8.892;2023-05-06T09:15:56;3.05;;;1.27;;
31594;SDS011;18200;48.726;8.892;2023-05-06T09:19:57;2.80;;;1.40;;
31594;SDS011;18200;48.726;8.892;2023-05-06T09:23:58;4.15;;;1.10;;
31594;SDS011;18200;48.726;8.892;2023-05-06T09:28:02;2.10;;;1.20;;
31594;SDS011;18200;48.726;8.892;2023-05-06T09:32:06;3.67;;;1.00;;
31594;SDS011;18200;48.726;8.892;2023-05-06T09:36:08;2.55;;;1.00;;
31594;SDS011;18200;48.726;8.892;2023-05-06T09:40:12;3.45;;;2.10;;
31594;SDS011;18200;48.726;8.892;2023-05-06T09:44:13;6.32;;;2.20;;
31594;SDS011;18200;48.726;8.892;2023-05-06T09:48:14;6.80;;;3.05;;
31594;SDS011;18200;48.726;8.892;2023-05-06T09:52:15;5.65;;;3.22;;
31594;SDS011;18200;48.726;8.892;2023-05-06T09:56:16;5.78;;;2.95;;
31594;SDS011;18200;48.726;8.892;2023-05-06T10:00:16;3.55;;;1.50;;
31594;SDS011;18200;48.726;8.892;2023-05-06T10:04:17;2.25;;;1.23;;
31594;SDS011;18200;48.726;8.892;2023-05-06T10:08:23;2.13;;;1.30;;
31594;SDS011;18200;48.726;8.892;2023-05-06T10:12:24;6.25;;;3.47;;
31594;SDS011;18200;48.726;8.892;2023-05-06T10:16:25;4.55;;;2.10;;
31594;SDS011;18200;48.726;8.892;2023-05-06T10:20:26;3.13;;;1.63;;
31594;SDS011;18200;48.726;8.892;2023-05-06T10:24:31;9.65;;;4.18;;
31594;SDS011;18200;48.726;8.892;2023-05-06T10:28:38;2.33;;;1.17;;
31594;SDS011;18200;48.726;8.892;2023-05-06T10:32:42;5.00;;;1.30;;
31594;SDS011;18200;48.726;8.892;2023-05-06T10:36:43;1.15;;;0.90;;
31594;SDS011;18200;48.726;8.892;2023-05-06T10:40:45;3.95;;;1.48;;
31594;SDS011;18200;48.726;8.892;2023-05-06T10:44:55;1.75;;;1.10;;
31594;SDS011;18200;48.726;8.892;2023-05-06T10:53:14;1.83;;;0.85;;
31594;SDS011;18200;48.726;8.892;2023-05-06T10:57:16;3.33;;;0.90;;
31594;SDS011;18200;48.726;8.892;2023-05-06T11:01:20;1.60;;;0.95;;
31594;SDS011;18200;48.726;8.892;2023-05-06T11:05:27;3.15;;;0.90;;
31594;SDS011;18200;48.726;8.892;2023-05-06T11:09:27;2.03;;;1.02;;
31594;SDS011;18200;48.726;8.892;2023-05-06T11:13:29;2.58;;;0.65;;
31594;SDS011;18200;48.726;8.892;2023-05-06T11:17:34;2.38;;;0.77;;
31594;SDS011;18200;48.726;8.892;2023-05-06T11:21:35;1.58;;;0.90;;
31594;SDS011;18200;48.726;8.892;2023-05-06T11:25:39;3.35;;;0.95;;
31594;SDS011;18200;48.726;8.892;2023-05-06T11:29:41;2.90;;;0.70;;
31594;SDS011;18200;48.726;8.892;2023-05-06T11:33:46;1.85;;;0.73;;
31594;SDS011;18200;48.726;8.892;2023-05-06T11:37:48;3.72;;;0.70;;
31594;SDS011;18200;48.726;8.892;2023-05-06T11:41:51;5.07;;;1.02;;
31594;SDS011;18200;48.726;8.892;2023-05-06T11:45:52;2.90;;;0.93;;
31594;SDS011;18200;48.726;8.892;2023-05-06T11:49:53;1.70;;;0.85;;
31594;SDS011;18200;48.726;8.892;2023-05-06T11:54:04;1.20;;;0.75;;
31594;SDS011;18200;48.726;8.892;2023-05-06T12:02:17;3.72;;;0.80;;
31594;SDS011;18200;48.726;8.892;2023-05-06T12:06:17;1.00;;;0.70;;
31594;SDS011;18200;48.726;8.892;2023-05-06T12:10:18;1.13;;;0.80;;
31594;SDS011;18200;48.726;8.892;2023-05-06T12:14:19;1.92;;;1.23;;
31594;SDS011;18200;48.726;8.892;2023-05-06T12:18:20;2.70;;;1.00;;
31594;SDS011;18200;48.726;8.892;2023-05-06T12:22:22;3.30;;;2.42;;
31594;SDS011;18200;48.726;8.892;2023-05-06T12:26:25;2.50;;;0.90;;
31594;SDS011;18200;48.726;8.892;2023-05-06T12:30:30;2.25;;;0.90;;
31594;SDS011;18200;48.726;8.892;2023-05-06T12:34:40;1.75;;;0.77;;
31594;SDS011;18200;48.726;8.892;2023-05-06T12:38:56;1.55;;;0.90;;
31594;SDS011;18200;48.726;8.892;2023-05-06T12:42:59;2.60;;;1.02;;
31594;SDS011;18200;48.726;8.892;2023-05-06T12:47:00;1.42;;;0.80;;
31594;SDS011;18200;48.726;8.892;2023-05-06T12:51:20;4.03;;;0.80;;
31594;SDS011;18200;48.726;8.892;2023-05-06T12:55:21;2.30;;;0.63;;
31594;SDS011;18200;48.726;8.892;2023-05-06T12:59:25;3.35;;;0.95;;
31594;SDS011;18200;48.726;8.892;2023-05-06T13:03:26;3.42;;;1.00;;
31594;SDS011;18200;48.726;8.892;2023-05-06T13:07:26;2.72;;;1.25;;
31594;SDS011;18200;48.726;8.892;2023-05-06T13:11:27;0.77;;;0.75;;
31594;SDS011;18200;48.726;8.892;2023-05-06T13:15:27;2.40;;;0.90;;
31594;SDS011;18200;48.726;8.892;2023-05-06T13:19:28;3.45;;;1.20;;
31594;SDS011;18200;48.726;8.892;2023-05-06T13:23:28;2.88;;;1.02;;
31594;SDS011;18200;48.726;8.892;2023-05-06T13:27:30;0.98;;;0.70;;
31594;SDS011;18200;48.726;8.892;2023-05-06T13:31:30;2.05;;;1.33;;
31594;SDS011;18200;48.726;8.892;2023-05-06T13:35:32;2.20;;;1.40;;
31594;SDS011;18200;48.726;8.892;2023-05-06T13:39:32;5.03;;;1.30;;
31594;SDS011;18200;48.726;8.892;2023-05-06T13:43:32;4.45;;;1.27;;
31594;SDS011;18200;48.726;8.892;2023-05-06T13:47:33;1.40;;;1.30;;
31594;SDS011;18200;48.726;8.892;2023-05-06T13:51:33;5.10;;;1.23;;
31594;SDS011;18200;48.726;8.892;2023-05-06T13:55:34;2.60;;;1.30;;
31594;SDS011;18200;48.726;8.892;2023-05-06T13:59:35;2.65;;;1.45;;
31594;SDS011;18200;48.726;8.892;2023-05-06T14:03:35;3.45;;;1.30;;
31594;SDS011;18200;48.726;8.892;2023-05-06T14:07:36;3.20;;;1.15;;
31594;SDS011;18200;48.726;8.892;2023-05-06T14:11:36;2.55;;;1.25;;
31594;SDS011;18200;48.726;8.892;2023-05-06T14:15:36;4.57;;;1.23;;
31594;SDS011;18200;48.726;8.892;2023-05-06T14:19:37;4.63;;;1.50;;
31594;SDS011;18200;48.726;8.892;2023-05-06T14:23:37;4.57;;;1.95;;
31594;SDS011;18200;48.726;8.892;2023-05-06T14:27:37;3.75;;;1.90;;
31594;SDS011;18200;48.726;8.892;2023-05-06T14:31:38;2.20;;;1.80;;
31594;SDS011;18200;48.726;8.892;2023-05-06T14:35:39;2.60;;;2.03;;
31594;SDS011;18200;48.726;8.892;2023-05-06T14:39:41;4.25;;;2.10;;
31594;SDS011;18200;48.726;8.892;2023-05-06T14:43:41;4.85;;;2.78;;
31594;SDS011;18200;48.726;8.892;2023-05-06T14:47:42;5.80;;;2.83;;
31594;SDS011;18200;48.726;8.892;2023-05-06T14:51:43;5.15;;;2.58;;
31594;SDS011;18200;48.726;8.892;2023-05-06T14:55:44;7.43;;;1.80;;
31594;SDS011;18200;48.726;8.892;2023-05-06T14:59:44;4.63;;;2.20;;
31594;SDS011;18200;48.726;8.892;2023-05-06T15:03:45;4.10;;;1.85;;
31594;SDS011;18200;48.726;8.892;2023-05-06T15:07:45;4.85;;;1.90;;
31594;SDS011;18200;48.726;8.892;2023-05-06T15:11:46;3.28;;;1.75;;
31594;SDS011;18200;48.726;8.892;2023-05-06T15:15:46;2.17;;;1.67;;
31594;SDS011;18200;48.726;8.892;2023-05-06T15:19:46;3.30;;;2.13;;
31594;SDS011;18200;48.726;8.892;2023-05-06T15:23:48;3.25;;;2.08;;
31594;SDS011;18200;48.726;8.892;2023-05-06T15:27:48;3.20;;;1.67;;
31594;SDS011;18200;48.726;8.892;2023-05-06T15:31:48;4.75;;;1.98;;
31594;SDS011;18200;48.726;8.892;2023-05-06T15:35:49;4.15;;;2.40;;
31594;SDS011;18200;48.726;8.892;2023-05-06T15:39:49;5.63;;;3.30;;
31594;SDS011;18200;48.726;8.892;2023-05-06T15:43:50;4.18;;;2.17;;
31594;SDS011;18200;48.726;8.892;2023-05-06T15:47:50;3.90;;;2.05;;
31594;SDS011;18200;48.726;8.892;2023-05-06T15:51:50;9.75;;;4.50;;
31594;SDS011;18200;48.726;8.892;2023-05-06T15:55:51;5.72;;;2.40;;
31594;SDS011;18200;48.726;8.892;2023-05-06T15:59:51;4.32;;;1.70;;
31594;SDS011;18200;48.726;8.892;2023-05-06T16:03:51;6.05;;;1.85;;
31594;SDS011;18200;48.726;8.892;2023-05-06T16:07:52;2.78;;;1.60;;
31594;SDS011;18200;48.726;8.892;2023-05-06T16:11:54;3.75;;;1.70;;
31594;SDS011;18200;48.726;8.892;2023-05-06T16:15:55;3.63;;;1.75;;
31594;SDS011;18200;48.726;8.892;2023-05-06T16:19:55;3.08;;;1.50;;
31594;SDS011;18200;48.726;8.892;2023-05-06T16:23:55;2.67;;;1.63;;
31594;SDS011;18200;48.726;8.892;2023-05-06T16:27:56;2.47;;;1.63;;
31594;SDS011;18200;48.726;8.892;2023-05-06T16:31:56;4.55;;;1.30;;
31594;SDS011;18200;48.726;8.892;2023-05-06T16:35:56;2.85;;;1.70;;
31594;SDS011;18200;48.726;8.892;2023-05-06T16:39:57;2.72;;;1.75;;
31594;SDS011;18200;48.726;8.892;2023-05-06T16:43:57;2.92;;;1.70;;
31594;SDS011;18200;48.726;8.892;2023-05-06T16:47:57;4.30;;;1.60;;
31594;SDS011;18200;48.726;8.892;2023-05-06T16:51:58;2.50;;;1.30;;
31594;SDS011;18200;48.726;8.892;2023-05-06T16:56:00;4.90;;;1.70;;
31594;SDS011;18200;48.726;8.892;2023-05-06T17:00:02;5.93;;;1.42;;
31594;SDS011;18200;48.726;8.892;2023-05-06T17:04:06;2.40;;;1.33;;
31594;SDS011;18200;48.726;8.892;2023-05-06T17:08:07;6.03;;;4.05;;
31594;SDS011;18200;48.726;8.892;2023-05-06T17:12:07;4.70;;;2.50;;
31594;SDS011;18200;48.726;8.892;2023-05-06T17:16:07;3.22;;;1.40;;
31594;SDS011;18200;48.726;8.892;2023-05-06T17:20:08;5.25;;;1.20;;
31594;SDS011;18200;48.726;8.892;2023-05-06T17:24:09;5.97;;;2.00;;
31594;SDS011;18200;48.726;8.892;2023-05-06T17:28:09;4.28;;;1.80;;
31594;SDS011;18200;48.726;8.892;2023-05-06T17:32:10;3.58;;;1.38;;
31594;SDS011;18200;48.726;8.892;2023-05-06T17:36:11;4.90;;;2.38;;
31594;SDS011;18200;48.726;8.892;2023-05-06T17:40:12;12.23;;;4.10;;
31594;SDS011;18200;48.726;8.892;2023-05-06T17:44:14;3.47;;;1.70;;
31594;SDS011;18200;48.726;8.892;2023-05-06T17:48:16;2.70;;;1.77;;
31594;SDS011;18200;48.726;8.892;2023-05-06T17:52:17;7.57;;;2.75;;
31594;SDS011;18200;48.726;8.892;2023-05-06T17:56:17;3.45;;;1.35;;
31594;SDS011;18200;48.726;8.892;2023-05-06T18:00:19;2.08;;;1.08;;
31594;SDS011;18200;48.726;8.892;2023-05-06T18:04:20;7.57;;;4.20;;
31594;SDS011;18200;48.726;8.892;2023-05-06T18:08:20;12.98;;;5.15;;
31594;SDS011;18200;48.726;8.892;2023-05-06T18:12:21;22.65;;;13.18;;
31594;SDS011;18200;48.726;8.892;2023-05-06T18:16:22;25.88;;;16.08;;
31594;SDS011;18200;48.726;8.892;2023-05-06T18:20:23;11.90;;;8.60;;
31594;SDS011;18200;48.726;8.892;2023-05-06T18:24:23;5.55;;;2.40;;
31594;SDS011;18200;48.726;8.892;2023-05-06T18:28:24;5.70;;;2.42;;
31594;SDS011;18200;48.726;8.892;2023-05-06T18:32:24;4.55;;;2.90;;
31594;SDS011;18200;48.726;8.892;2023-05-06T18:36:25;5.05;;;1.90;;
31594;SDS011;18200;48.726;8.892;2023-05-06T18:40:25;3.63;;;1.90;;
31594;SDS011;18200;48.726;8.892;2023-05-06T18:44:26;3.92;;;1.70;;
31594;SDS011;18200;48.726;8.892;2023-05-06T18:48:26;7.15;;;1.65;;
31594;SDS011;18200;48.726;8.892;2023-05-06T18:52:29;5.43;;;2.05;;
31594;SDS011;18200;48.726;8.892;2023-05-06T18:56:30;5.45;;;2.30;;
31594;SDS011;18200;48.726;8.892;2023-05-06T19:00:30;9.38;;;3.00;;
31594;SDS011;18200;48.726;8.892;2023-05-06T19:04:31;8.25;;;2.13;;
31594;SDS011;18200;48.726;8.892;2023-05-06T19:08:40;4.15;;;2.50;;
31594;SDS011;18200;48.726;8.892;2023-05-06T19:12:41;7.40;;;3.00;;
31594;SDS011;18200;48.726;8.892;2023-05-06T19:16:41;5.60;;;2.97;;
31594;SDS011;18200;48.726;8.892;2023-05-06T19:20:42;7.07;;;4.65;;
31594;SDS011;18200;48.726;8.892;2023-05-06T19:24:42;4.30;;;3.47;;
31594;SDS011;18200;48.726;8.892;2023-05-06T19:28:43;5.80;;;2.60;;
31594;SDS011;18200;48.726;8.892;2023-05-06T19:32:43;5.88;;;2.30;;
31594;SDS011;18200;48.726;8.892;2023-05-06T19:36:44;5.85;;;2.10;;
31594;SDS011;18200;48.726;8.892;2023-05-06T19:40:44;3.42;;;1.70;;
31594;SDS011;18200;48.726;8.892;2023-05-06T19:44:45;3.40;;;2.00;;
31594;SDS011;18200;48.726;8.892;2023-05-06T19:48:46;4.65;;;1.90;;
31594;SDS011;18200;48.726;8.892;2023-05-06T19:52:47;4.18;;;1.60;;
31594;SDS011;18200;48.726;8.892;2023-05-06T19:56:47;4.30;;;1.70;;
31594;SDS011;18200;48.726;8.892;2023-05-06T20:00:47;8.50;;;1.98;;
31594;SDS011;18200;48.726;8.892;2023-05-06T20:04:48;6.50;;;2.05;;
31594;SDS011;18200;48.726;8.892;2023-05-06T20:08:48;2.83;;;1.60;;
31594;SDS011;18200;48.726;8.892;2023-05-06T20:12:49;4.25;;;1.85;;
31594;SDS011;18200;48.726;8.892;2023-05-06T20:16:49;6.60;;;2.30;;
31594;SDS011;18200;48.726;8.892;2023-05-06T20:20:50;2.75;;;1.88;;
31594;SDS011;18200;48.726;8.892;2023-05-06T20:24:50;4.35;;;1.65;;
31594;SDS011;18200;48.726;8.892;2023-05-06T20:28:52;4.88;;;2.22;;
31594;SDS011;18200;48.726;8.892;2023-05-06T20:32:53;2.92;;;2.00;;
31594;SDS011;18200;48.726;8.892;2023-05-06T20:36:53;2.80;;;2.05;;
31594;SDS011;18200;48.726;8.892;2023-05-06T20:40:55;3.33;;;2.00;;
31594;SDS011;18200;48.726;8.892;2023-05-06T20:44:57;2.55;;;1.83;;
31594;SDS011;18200;48.726;8.892;2023-05-06T20:48:57;4.30;;;2.00;;
31594;SDS011;18200;48.726;8.892;2023-05-06T20:52:59;3.85;;;2.10;;
31594;SDS011;18200;48.726;8.892;2023-05-06T20:56:59;6.30;;;2.00;;
31594;SDS011;18200;48.726;8.892;2023-05-06T21:01:01;3.47;;;2.28;;
31594;SDS011;18200;48.726;8.892;2023-05-06T21:05:02;5.80;;;2.13;;
31594;SDS011;18200;48.726;8.892;2023-05-06T21:09:03;7.18;;;2.03;;
31594;SDS011;18200;48.726;8.892;2023-05-06T21:13:03;4.60;;;2.50;;
31594;SDS011;18200;48.726;8.892;2023-05-06T21:17:03;2.63;;;2.10;;
31594;SDS011;18200;48.726;8.892;2023-05-06T21:21:04;5.25;;;2.58;;
31594;SDS011;18200;48.726;8.892;2023-05-06T21:25:04;6.10;;;2.65;;
31594;SDS011;18200;48.726;8.892;2023-05-06T21:29:05;5.82;;;2.53;;
31594;SDS011;18200;48.726;8.892;2023-05-06T21:33:06;5.10;;;2.60;;
31594;SDS011;18200;48.726;8.892;2023-05-06T21:37:07;5.32;;;2.83;;
31594;SDS011;18200;48.726;8.892;2023-05-06T21:41:07;6.40;;;3.10;;
31594;SDS011;18200;48.726;8.892;2023-05-06T21:45:08;5.47;;;2.65;;
31594;SDS011;18200;48.726;8.892;2023-05-06T21:49:10;5.60;;;2.90;;
31594;SDS011;18200;48.726;8.892;2023-05-06T21:53:10;11.27;;;3.13;;
31594;SDS011;18200;48.726;8.892;2023-05-06T21:57:11;4.00;;;2.80;;
31594;SDS011;18200;48.726;8.892;2023-05-06T22:01:11;4.97;;;2.80;;
31594;SDS011;18200;48.726;8.892;2023-05-06T22:05:12;12.23;;;3.47;;
31594;SDS011;18200;48.726;8.892;2023-05-06T22:09:12;5.15;;;2.95;;
31594;SDS011;18200;48.726;8.892;2023-05-06T22:13:13;9.02;;;3.63;;
31594;SDS011;18200;48.726;8.892;2023-05-06T22:17:13;5.38;;;3.25;;
31594;SDS011;18200;48.726;8.892;2023-05-06T22:21:14;4.50;;;3.00;;
31594;SDS011;18200;48.726;8.892;2023-05-06T22:25:15;5.97;;;3.28;;
31594;SDS011;18200;48.726;8.892;2023-05-06T22:29:15;7.93;;;3.20;;
31594;SDS011;18200;48.726;8.892;2023-05-06T22:33:15;6.25;;;3.65;;
31594;SDS011;18200;48.726;8.892;2023-05-06T22:37:16;7.72;;;3.60;;
31594;SDS011;18200;48.726;8.892;2023-05-06T22:41:16;4.90;;;2.88;;
31594;SDS011;18200;48.726;8.892;2023-05-06T22:45:17;8.25;;;3.50;;
31594;SDS011;18200;48.726;8.892;2023-05-06T22:49:17;4.55;;;2.85;;
31594;SDS011;18200;48.726;8.892;2023-05-06T22:53:18;5.28;;;3.63;;
31594;SDS011;18200;48.726;8.892;2023-05-06T22:57:19;5.05;;;3.30;;
31594;SDS011;18200;48.726;8.892;2023-05-06T23:01:22;6.68;;;2.80;;
31594;SDS011;18200;48.726;8.892;2023-05-06T23:05:24;6.80;;;3.33;;
31594;SDS011;18200;48.726;8.892;2023-05-06T23:09:24;8.80;;;3.42;;
31594;SDS011;18200;48.726;8.892;2023-05-06T23:13:24;5.20;;;3.25;;
31594;SDS011;18200;48.726;8.892;2023-05-06T23:17:25;7.55;;;3.55;;
31594;SDS011;18200;48.726;8.892;2023-05-06T23:21:25;5.65;;;3.08;;
31594;SDS011;18200;48.726;8.892;2023-05-06T23:25:26;7.72;;;3.10;;
31594;SDS011;18200;48.726;8.892;2023-05-06T23:29:27;7.00;;;3.13;;
31594;SDS011;18200;48.726;8.892;2023-05-06T23:33:27;3.47;;;3.13;;
31594;SDS011;18200;48.726;8.892;2023-05-06T23:37:27;7.65;;;3.28;;
31594;SDS011;18200;48.726;8.892;2023-05-06T23:41:28;4.57;;;3.03;;
31594;SDS011;18200;48.726;8.892;2023-05-06T23:45:28;5.28;;;2.78;;
31594;SDS011;18200;48.726;8.892;2023-05-06T23:49:28;4.75;;;3.20;;
31594;SDS011;18200;48.726;8.892;2023-05-06T23:53:29;6.63;;;3.25;;
31594;SDS011;18200;48.726;8.892;2023-05-06T23:57:29;5.32;;;2.90;;
